<?xml version="1.0" encoding="UTF-8" standalone="no" ?>
<gpx xmlns="http://www.topografix.com/GPX/1/1" xmlns:xsi="http://www.w3.org/2001/XMLSchema-instance" xsi:schemaLocation="http://www.topografix.com/GPX/1/1 http://www.topografix.com/GPX/1/1/gpx.xsd" version="1.1" creator="VisuGPX - https://www.visugpx.com">
  <metadata>
    <name>Rando St Martin en Haut 2023</name>
  </metadata>
  <wpt lat="45.67679" lon="4.50069">
    <ele>867</ele>
    <name><![CDATA[Ravitaillement]]></name>
    <desc><![CDATA[]]></desc>
  </wpt>
  <wpt lat="45.69132" lon="4.56646">
    <ele>820.8</ele>
    <name><![CDATA[Ravitaillement]]></name>
    <desc><![CDATA[]]></desc>
  </wpt>
  <trk>
    <name><![CDATA[RANDO 23 -- 21 KM-17574378]]></name>
    <trkseg>
      <trkpt lat="45.65831" lon="4.56424">
        <ele>725</ele>
        <time>2023-10-30T06:57:56Z</time>
      </trkpt>
      <trkpt lat="45.65881" lon="4.56402">
        <ele>727</ele>
        <time>2023-10-30T06:58:38Z</time>
      </trkpt>
      <trkpt lat="45.65994" lon="4.55979">
        <ele>733</ele>
        <time>2023-10-30T07:02:51Z</time>
      </trkpt>
      <trkpt lat="45.66" lon="4.55962">
        <ele>733</ele>
        <time>2023-10-30T07:03:02Z</time>
      </trkpt>
      <trkpt lat="45.66006" lon="4.55949">
        <ele>732</ele>
        <time>2023-10-30T07:03:11Z</time>
      </trkpt>
      <trkpt lat="45.66013" lon="4.55942">
        <ele>731</ele>
        <time>2023-10-30T07:03:18Z</time>
      </trkpt>
      <trkpt lat="45.6602" lon="4.5594">
        <ele>731</ele>
        <time>2023-10-30T07:03:23Z</time>
      </trkpt>
      <trkpt lat="45.66032" lon="4.5594">
        <ele>730</ele>
        <time>2023-10-30T07:03:33Z</time>
      </trkpt>
      <trkpt lat="45.66039" lon="4.55941">
        <ele>729</ele>
        <time>2023-10-30T07:03:38Z</time>
      </trkpt>
      <trkpt lat="45.66049" lon="4.55947">
        <ele>729</ele>
        <time>2023-10-30T07:03:47Z</time>
      </trkpt>
      <trkpt lat="45.66167" lon="4.56037">
        <ele>726</ele>
        <time>2023-10-30T07:05:34Z</time>
      </trkpt>
      <trkpt lat="45.66164" lon="4.56035">
        <ele>726</ele>
        <time>2023-10-30T07:05:37Z</time>
      </trkpt>
      <trkpt lat="45.66173" lon="4.56011">
        <ele>723</ele>
        <time>2023-10-30T07:05:52Z</time>
      </trkpt>
      <trkpt lat="45.66179" lon="4.56004">
        <ele>722</ele>
        <time>2023-10-30T07:05:58Z</time>
      </trkpt>
      <trkpt lat="45.66232" lon="4.55979">
        <ele>716</ele>
        <time>2023-10-30T07:06:43Z</time>
      </trkpt>
      <trkpt lat="45.66234" lon="4.55965">
        <ele>715</ele>
        <time>2023-10-30T07:06:51Z</time>
      </trkpt>
      <trkpt lat="45.66248" lon="4.55936">
        <ele>711</ele>
        <time>2023-10-30T07:07:11Z</time>
      </trkpt>
      <trkpt lat="45.66276" lon="4.5586">
        <ele>706</ele>
        <time>2023-10-30T07:07:59Z</time>
      </trkpt>
      <trkpt lat="45.66275" lon="4.55848">
        <ele>705</ele>
        <time>2023-10-30T07:08:06Z</time>
      </trkpt>
      <trkpt lat="45.66285" lon="4.5584">
        <ele>705</ele>
        <time>2023-10-30T07:08:15Z</time>
      </trkpt>
      <trkpt lat="45.66299" lon="4.55823">
        <ele>706</ele>
        <time>2023-10-30T07:08:29Z</time>
      </trkpt>
      <trkpt lat="45.6631" lon="4.55801">
        <ele>706</ele>
        <time>2023-10-30T07:08:45Z</time>
      </trkpt>
      <trkpt lat="45.66329" lon="4.55746">
        <ele>705</ele>
        <time>2023-10-30T07:09:19Z</time>
      </trkpt>
      <trkpt lat="45.66334" lon="4.55737">
        <ele>706</ele>
        <time>2023-10-30T07:09:25Z</time>
      </trkpt>
      <trkpt lat="45.66338" lon="4.55733">
        <ele>706</ele>
        <time>2023-10-30T07:09:29Z</time>
      </trkpt>
      <trkpt lat="45.66347" lon="4.55727">
        <ele>706</ele>
        <time>2023-10-30T07:09:37Z</time>
      </trkpt>
      <trkpt lat="45.66361" lon="4.55727">
        <ele>707</ele>
        <time>2023-10-30T07:09:48Z</time>
      </trkpt>
      <trkpt lat="45.66366" lon="4.55726">
        <ele>707</ele>
        <time>2023-10-30T07:09:52Z</time>
      </trkpt>
      <trkpt lat="45.66373" lon="4.5572">
        <ele>707</ele>
        <time>2023-10-30T07:09:59Z</time>
      </trkpt>
      <trkpt lat="45.66378" lon="4.55712">
        <ele>707</ele>
        <time>2023-10-30T07:10:05Z</time>
      </trkpt>
      <trkpt lat="45.66386" lon="4.55669">
        <ele>706</ele>
        <time>2023-10-30T07:10:30Z</time>
      </trkpt>
      <trkpt lat="45.66384" lon="4.5566">
        <ele>705</ele>
        <time>2023-10-30T07:10:35Z</time>
      </trkpt>
      <trkpt lat="45.6638" lon="4.55596">
        <ele>700</ele>
        <time>2023-10-30T07:11:11Z</time>
      </trkpt>
      <trkpt lat="45.66377" lon="4.55577">
        <ele>698</ele>
        <time>2023-10-30T07:11:22Z</time>
      </trkpt>
      <trkpt lat="45.6636" lon="4.55543">
        <ele>694</ele>
        <time>2023-10-30T07:11:45Z</time>
      </trkpt>
      <trkpt lat="45.66357" lon="4.5553">
        <ele>693</ele>
        <time>2023-10-30T07:11:53Z</time>
      </trkpt>
      <trkpt lat="45.6636" lon="4.55388">
        <ele>681</ele>
        <time>2023-10-30T07:13:13Z</time>
      </trkpt>
      <trkpt lat="45.66369" lon="4.55312">
        <ele>674</ele>
        <time>2023-10-30T07:13:56Z</time>
      </trkpt>
      <trkpt lat="45.66367" lon="4.55198">
        <ele>663</ele>
        <time>2023-10-30T07:15:00Z</time>
      </trkpt>
      <trkpt lat="45.66379" lon="4.55166">
        <ele>659</ele>
        <time>2023-10-30T07:15:20Z</time>
      </trkpt>
      <trkpt lat="45.66392" lon="4.55111">
        <ele>652</ele>
        <time>2023-10-30T07:15:52Z</time>
      </trkpt>
      <trkpt lat="45.664" lon="4.55069">
        <ele>646</ele>
        <time>2023-10-30T07:16:17Z</time>
      </trkpt>
      <trkpt lat="45.66419" lon="4.5503">
        <ele>641</ele>
        <time>2023-10-30T07:16:43Z</time>
      </trkpt>
      <trkpt lat="45.66425" lon="4.55002">
        <ele>637</ele>
        <time>2023-10-30T07:17:00Z</time>
      </trkpt>
      <trkpt lat="45.66425" lon="4.55002">
        <ele>637</ele>
        <time>2023-10-30T07:17:00Z</time>
      </trkpt>
      <trkpt lat="45.6641" lon="4.55005">
        <ele>637</ele>
        <time>2023-10-30T07:17:12Z</time>
      </trkpt>
      <trkpt lat="45.66369" lon="4.55004">
        <ele>635</ele>
        <time>2023-10-30T07:17:45Z</time>
      </trkpt>
      <trkpt lat="45.66366" lon="4.55002">
        <ele>635</ele>
        <time>2023-10-30T07:17:47Z</time>
      </trkpt>
      <trkpt lat="45.66365" lon="4.54995">
        <ele>634</ele>
        <time>2023-10-30T07:17:51Z</time>
      </trkpt>
      <trkpt lat="45.66372" lon="4.54969">
        <ele>634</ele>
        <time>2023-10-30T07:18:07Z</time>
      </trkpt>
      <trkpt lat="45.66375" lon="4.54957">
        <ele>634</ele>
        <time>2023-10-30T07:18:14Z</time>
      </trkpt>
      <trkpt lat="45.66377" lon="4.54948">
        <ele>634</ele>
        <time>2023-10-30T07:18:19Z</time>
      </trkpt>
      <trkpt lat="45.66388" lon="4.54864">
        <ele>635</ele>
        <time>2023-10-30T07:19:07Z</time>
      </trkpt>
      <trkpt lat="45.66414" lon="4.54734">
        <ele>646</ele>
        <time>2023-10-30T07:20:23Z</time>
      </trkpt>
      <trkpt lat="45.66421" lon="4.54707">
        <ele>648</ele>
        <time>2023-10-30T07:20:39Z</time>
      </trkpt>
      <trkpt lat="45.66434" lon="4.54659">
        <ele>653</ele>
        <time>2023-10-30T07:21:08Z</time>
      </trkpt>
      <trkpt lat="45.66448" lon="4.54581">
        <ele>659</ele>
        <time>2023-10-30T07:21:53Z</time>
      </trkpt>
      <trkpt lat="45.66478" lon="4.54441">
        <ele>673</ele>
        <time>2023-10-30T07:23:15Z</time>
      </trkpt>
      <trkpt lat="45.66484" lon="4.54398">
        <ele>677</ele>
        <time>2023-10-30T07:23:39Z</time>
      </trkpt>
      <trkpt lat="45.6648" lon="4.54327">
        <ele>684</ele>
        <time>2023-10-30T07:24:19Z</time>
      </trkpt>
      <trkpt lat="45.66472" lon="4.54251">
        <ele>693</ele>
        <time>2023-10-30T07:25:02Z</time>
      </trkpt>
      <trkpt lat="45.66459" lon="4.54161">
        <ele>703</ele>
        <time>2023-10-30T07:25:54Z</time>
      </trkpt>
      <trkpt lat="45.66456" lon="4.54098">
        <ele>709</ele>
        <time>2023-10-30T07:26:29Z</time>
      </trkpt>
      <trkpt lat="45.66444" lon="4.54008">
        <ele>720</ele>
        <time>2023-10-30T07:27:20Z</time>
      </trkpt>
      <trkpt lat="45.66418" lon="4.5394">
        <ele>726</ele>
        <time>2023-10-30T07:28:04Z</time>
      </trkpt>
      <trkpt lat="45.66396" lon="4.53852">
        <ele>727</ele>
        <time>2023-10-30T07:28:56Z</time>
      </trkpt>
      <trkpt lat="45.66368" lon="4.53775">
        <ele>727</ele>
        <time>2023-10-30T07:29:44Z</time>
      </trkpt>
      <trkpt lat="45.66354" lon="4.53713">
        <ele>725</ele>
        <time>2023-10-30T07:30:21Z</time>
      </trkpt>
      <trkpt lat="45.66339" lon="4.53577">
        <ele>718</ele>
        <time>2023-10-30T07:31:38Z</time>
      </trkpt>
      <trkpt lat="45.6633" lon="4.53448">
        <ele>719</ele>
        <time>2023-10-30T07:32:50Z</time>
      </trkpt>
      <trkpt lat="45.66327" lon="4.53353">
        <ele>724</ele>
        <time>2023-10-30T07:33:44Z</time>
      </trkpt>
      <trkpt lat="45.66331" lon="4.53287">
        <ele>730</ele>
        <time>2023-10-30T07:34:21Z</time>
      </trkpt>
      <trkpt lat="45.66335" lon="4.53228">
        <ele>736</ele>
        <time>2023-10-30T07:34:54Z</time>
      </trkpt>
      <trkpt lat="45.66345" lon="4.53172">
        <ele>743</ele>
        <time>2023-10-30T07:35:26Z</time>
      </trkpt>
      <trkpt lat="45.66338" lon="4.53134">
        <ele>746</ele>
        <time>2023-10-30T07:35:48Z</time>
      </trkpt>
      <trkpt lat="45.66339" lon="4.53102">
        <ele>750</ele>
        <time>2023-10-30T07:36:06Z</time>
      </trkpt>
      <trkpt lat="45.66347" lon="4.53">
        <ele>759</ele>
        <time>2023-10-30T07:37:04Z</time>
      </trkpt>
      <trkpt lat="45.66361" lon="4.52925">
        <ele>765</ele>
        <time>2023-10-30T07:37:47Z</time>
      </trkpt>
      <trkpt lat="45.66379" lon="4.52889">
        <ele>767</ele>
        <time>2023-10-30T07:38:12Z</time>
      </trkpt>
      <trkpt lat="45.66408" lon="4.52845">
        <ele>769</ele>
        <time>2023-10-30T07:38:46Z</time>
      </trkpt>
      <trkpt lat="45.66421" lon="4.52827">
        <ele>770</ele>
        <time>2023-10-30T07:39:00Z</time>
      </trkpt>
      <trkpt lat="45.66445" lon="4.52788">
        <ele>770</ele>
        <time>2023-10-30T07:39:29Z</time>
      </trkpt>
      <trkpt lat="45.66444" lon="4.52787">
        <ele>770</ele>
        <time>2023-10-30T07:39:30Z</time>
      </trkpt>
      <trkpt lat="45.6645" lon="4.52785">
        <ele>770</ele>
        <time>2023-10-30T07:39:35Z</time>
      </trkpt>
      <trkpt lat="45.66467" lon="4.52729">
        <ele>771</ele>
        <time>2023-10-30T07:40:09Z</time>
      </trkpt>
      <trkpt lat="45.66485" lon="4.52646">
        <ele>775</ele>
        <time>2023-10-30T07:40:58Z</time>
      </trkpt>
      <trkpt lat="45.6651" lon="4.52526">
        <ele>784</ele>
        <time>2023-10-30T07:42:08Z</time>
      </trkpt>
      <trkpt lat="45.66512" lon="4.525">
        <ele>785</ele>
        <time>2023-10-30T07:42:23Z</time>
      </trkpt>
      <trkpt lat="45.66505" lon="4.52429">
        <ele>790</ele>
        <time>2023-10-30T07:43:03Z</time>
      </trkpt>
      <trkpt lat="45.66498" lon="4.52399">
        <ele>791</ele>
        <time>2023-10-30T07:43:20Z</time>
      </trkpt>
      <trkpt lat="45.6649" lon="4.52338">
        <ele>792</ele>
        <time>2023-10-30T07:43:55Z</time>
      </trkpt>
      <trkpt lat="45.6647" lon="4.52261">
        <ele>790</ele>
        <time>2023-10-30T07:44:41Z</time>
      </trkpt>
      <trkpt lat="45.66465" lon="4.52204">
        <ele>788</ele>
        <time>2023-10-30T07:45:13Z</time>
      </trkpt>
      <trkpt lat="45.66466" lon="4.52132">
        <ele>785</ele>
        <time>2023-10-30T07:45:54Z</time>
      </trkpt>
      <trkpt lat="45.66471" lon="4.52061">
        <ele>783</ele>
        <time>2023-10-30T07:46:34Z</time>
      </trkpt>
      <trkpt lat="45.66467" lon="4.51982">
        <ele>779</ele>
        <time>2023-10-30T07:47:18Z</time>
      </trkpt>
      <trkpt lat="45.66466" lon="4.51913">
        <ele>776</ele>
        <time>2023-10-30T07:47:56Z</time>
      </trkpt>
      <trkpt lat="45.6647" lon="4.51867">
        <ele>776</ele>
        <time>2023-10-30T07:48:22Z</time>
      </trkpt>
      <trkpt lat="45.66495" lon="4.51782">
        <ele>777</ele>
        <time>2023-10-30T07:49:14Z</time>
      </trkpt>
      <trkpt lat="45.665" lon="4.51731">
        <ele>779</ele>
        <time>2023-10-30T07:49:43Z</time>
      </trkpt>
      <trkpt lat="45.66511" lon="4.51679">
        <ele>779</ele>
        <time>2023-10-30T07:50:13Z</time>
      </trkpt>
      <trkpt lat="45.6652" lon="4.51648">
        <ele>779</ele>
        <time>2023-10-30T07:50:32Z</time>
      </trkpt>
      <trkpt lat="45.6652" lon="4.51647">
        <ele>778</ele>
        <time>2023-10-30T07:50:33Z</time>
      </trkpt>
      <trkpt lat="45.66536" lon="4.51636">
        <ele>779</ele>
        <time>2023-10-30T07:50:47Z</time>
      </trkpt>
      <trkpt lat="45.66562" lon="4.51615">
        <ele>780</ele>
        <time>2023-10-30T07:51:11Z</time>
      </trkpt>
      <trkpt lat="45.66602" lon="4.51588">
        <ele>783</ele>
        <time>2023-10-30T07:51:46Z</time>
      </trkpt>
      <trkpt lat="45.66667" lon="4.51549">
        <ele>789</ele>
        <time>2023-10-30T07:52:43Z</time>
      </trkpt>
      <trkpt lat="45.66676" lon="4.51542">
        <ele>790</ele>
        <time>2023-10-30T07:52:51Z</time>
      </trkpt>
      <trkpt lat="45.66679" lon="4.51534">
        <ele>791</ele>
        <time>2023-10-30T07:52:56Z</time>
      </trkpt>
      <trkpt lat="45.66693" lon="4.51534">
        <ele>792</ele>
        <time>2023-10-30T07:53:07Z</time>
      </trkpt>
      <trkpt lat="45.66714" lon="4.51527">
        <ele>793</ele>
        <time>2023-10-30T07:53:24Z</time>
      </trkpt>
      <trkpt lat="45.66732" lon="4.51517">
        <ele>795</ele>
        <time>2023-10-30T07:53:40Z</time>
      </trkpt>
      <trkpt lat="45.66748" lon="4.51505">
        <ele>797</ele>
        <time>2023-10-30T07:53:54Z</time>
      </trkpt>
      <trkpt lat="45.66751" lon="4.51503">
        <ele>798</ele>
        <time>2023-10-30T07:53:57Z</time>
      </trkpt>
      <trkpt lat="45.66709" lon="4.51491">
        <ele>798</ele>
        <time>2023-10-30T07:54:31Z</time>
      </trkpt>
      <trkpt lat="45.66699" lon="4.51476">
        <ele>799</ele>
        <time>2023-10-30T07:54:43Z</time>
      </trkpt>
      <trkpt lat="45.66641" lon="4.51323">
        <ele>811</ele>
        <time>2023-10-30T07:56:20Z</time>
      </trkpt>
      <trkpt lat="45.66643" lon="4.51315">
        <ele>812</ele>
        <time>2023-10-30T07:56:25Z</time>
      </trkpt>
      <trkpt lat="45.66645" lon="4.51304">
        <ele>813</ele>
        <time>2023-10-30T07:56:31Z</time>
      </trkpt>
      <trkpt lat="45.66644" lon="4.51286">
        <ele>815</ele>
        <time>2023-10-30T07:56:41Z</time>
      </trkpt>
      <trkpt lat="45.66652" lon="4.51243">
        <ele>820</ele>
        <time>2023-10-30T07:57:06Z</time>
      </trkpt>
      <trkpt lat="45.66658" lon="4.51241">
        <ele>822</ele>
        <time>2023-10-30T07:57:11Z</time>
      </trkpt>
      <trkpt lat="45.6667" lon="4.51256">
        <ele>823</ele>
        <time>2023-10-30T07:57:24Z</time>
      </trkpt>
      <trkpt lat="45.66673" lon="4.51258">
        <ele>824</ele>
        <time>2023-10-30T07:57:27Z</time>
      </trkpt>
      <trkpt lat="45.66679" lon="4.51258">
        <ele>825</ele>
        <time>2023-10-30T07:57:31Z</time>
      </trkpt>
      <trkpt lat="45.66734" lon="4.51205">
        <ele>838</ele>
        <time>2023-10-30T07:58:24Z</time>
      </trkpt>
      <trkpt lat="45.66742" lon="4.51191">
        <ele>840</ele>
        <time>2023-10-30T07:58:35Z</time>
      </trkpt>
      <trkpt lat="45.66746" lon="4.51177">
        <ele>841</ele>
        <time>2023-10-30T07:58:43Z</time>
      </trkpt>
      <trkpt lat="45.66755" lon="4.51108">
        <ele>844</ele>
        <time>2023-10-30T07:59:22Z</time>
      </trkpt>
      <trkpt lat="45.66761" lon="4.5109">
        <ele>845</ele>
        <time>2023-10-30T07:59:33Z</time>
      </trkpt>
      <trkpt lat="45.66812" lon="4.51002">
        <ele>852</ele>
        <time>2023-10-30T08:00:37Z</time>
      </trkpt>
      <trkpt lat="45.66853" lon="4.50914">
        <ele>855</ele>
        <time>2023-10-30T08:01:37Z</time>
      </trkpt>
      <trkpt lat="45.66855" lon="4.50903">
        <ele>855</ele>
        <time>2023-10-30T08:01:43Z</time>
      </trkpt>
      <trkpt lat="45.6686" lon="4.50891">
        <ele>855</ele>
        <time>2023-10-30T08:01:51Z</time>
      </trkpt>
      <trkpt lat="45.66872" lon="4.5088">
        <ele>854</ele>
        <time>2023-10-30T08:02:02Z</time>
      </trkpt>
      <trkpt lat="45.66887" lon="4.50861">
        <ele>853</ele>
        <time>2023-10-30T08:02:18Z</time>
      </trkpt>
      <trkpt lat="45.66913" lon="4.50819">
        <ele>853</ele>
        <time>2023-10-30T08:02:50Z</time>
      </trkpt>
      <trkpt lat="45.66918" lon="4.50783">
        <ele>852</ele>
        <time>2023-10-30T08:03:10Z</time>
      </trkpt>
      <trkpt lat="45.66916" lon="4.50752">
        <ele>852</ele>
        <time>2023-10-30T08:03:28Z</time>
      </trkpt>
      <trkpt lat="45.66912" lon="4.50727">
        <ele>851</ele>
        <time>2023-10-30T08:03:42Z</time>
      </trkpt>
      <trkpt lat="45.66903" lon="4.50701">
        <ele>850</ele>
        <time>2023-10-30T08:03:58Z</time>
      </trkpt>
      <trkpt lat="45.66901" lon="4.50702">
        <ele>850</ele>
        <time>2023-10-30T08:04:00Z</time>
      </trkpt>
      <trkpt lat="45.66903" lon="4.50701">
        <ele>850</ele>
        <time>2023-10-30T08:04:02Z</time>
      </trkpt>
      <trkpt lat="45.66911" lon="4.50702">
        <ele>851</ele>
        <time>2023-10-30T08:04:08Z</time>
      </trkpt>
      <trkpt lat="45.66921" lon="4.50708">
        <ele>852</ele>
        <time>2023-10-30T08:04:17Z</time>
      </trkpt>
      <trkpt lat="45.66929" lon="4.50726">
        <ele>854</ele>
        <time>2023-10-30T08:04:29Z</time>
      </trkpt>
      <trkpt lat="45.66948" lon="4.50752">
        <ele>856</ele>
        <time>2023-10-30T08:04:50Z</time>
      </trkpt>
      <trkpt lat="45.66973" lon="4.50778">
        <ele>857</ele>
        <time>2023-10-30T08:05:14Z</time>
      </trkpt>
      <trkpt lat="45.6699" lon="4.50789">
        <ele>856</ele>
        <time>2023-10-30T08:05:29Z</time>
      </trkpt>
      <trkpt lat="45.67015" lon="4.50801">
        <ele>855</ele>
        <time>2023-10-30T08:05:50Z</time>
      </trkpt>
      <trkpt lat="45.67027" lon="4.50803">
        <ele>855</ele>
        <time>2023-10-30T08:06:00Z</time>
      </trkpt>
      <trkpt lat="45.67065" lon="4.50798">
        <ele>856</ele>
        <time>2023-10-30T08:06:31Z</time>
      </trkpt>
      <trkpt lat="45.67121" lon="4.50804">
        <ele>858</ele>
        <time>2023-10-30T08:07:16Z</time>
      </trkpt>
      <trkpt lat="45.67127" lon="4.50806">
        <ele>858</ele>
        <time>2023-10-30T08:07:21Z</time>
      </trkpt>
      <trkpt lat="45.67189" lon="4.50868">
        <ele>862</ele>
        <time>2023-10-30T08:08:21Z</time>
      </trkpt>
      <trkpt lat="45.67189" lon="4.50867">
        <ele>862</ele>
        <time>2023-10-30T08:08:22Z</time>
      </trkpt>
      <trkpt lat="45.67189" lon="4.50868">
        <ele>862</ele>
        <time>2023-10-30T08:08:22Z</time>
      </trkpt>
      <trkpt lat="45.67242" lon="4.50941">
        <ele>866</ele>
        <time>2023-10-30T08:09:21Z</time>
      </trkpt>
      <trkpt lat="45.67267" lon="4.50951">
        <ele>866</ele>
        <time>2023-10-30T08:09:42Z</time>
      </trkpt>
      <trkpt lat="45.67305" lon="4.50954">
        <ele>863</ele>
        <time>2023-10-30T08:10:12Z</time>
      </trkpt>
      <trkpt lat="45.67364" lon="4.50962">
        <ele>859</ele>
        <time>2023-10-30T08:11:00Z</time>
      </trkpt>
      <trkpt lat="45.67376" lon="4.50967">
        <ele>859</ele>
        <time>2023-10-30T08:11:10Z</time>
      </trkpt>
      <trkpt lat="45.67419" lon="4.50987">
        <ele>855</ele>
        <time>2023-10-30T08:11:46Z</time>
      </trkpt>
      <trkpt lat="45.67432" lon="4.50989">
        <ele>854</ele>
        <time>2023-10-30T08:11:57Z</time>
      </trkpt>
      <trkpt lat="45.6745" lon="4.50983">
        <ele>853</ele>
        <time>2023-10-30T08:12:11Z</time>
      </trkpt>
      <trkpt lat="45.67465" lon="4.50967">
        <ele>853</ele>
        <time>2023-10-30T08:12:26Z</time>
      </trkpt>
      <trkpt lat="45.67551" lon="4.50755">
        <ele>859</ele>
        <time>2023-10-30T08:14:43Z</time>
      </trkpt>
      <trkpt lat="45.67563" lon="4.50734">
        <ele>860</ele>
        <time>2023-10-30T08:14:59Z</time>
      </trkpt>
      <trkpt lat="45.67586" lon="4.5071">
        <ele>863</ele>
        <time>2023-10-30T08:15:21Z</time>
      </trkpt>
      <trkpt lat="45.67598" lon="4.50703">
        <ele>865</ele>
        <time>2023-10-30T08:15:32Z</time>
      </trkpt>
      <trkpt lat="45.67615" lon="4.50702">
        <ele>866</ele>
        <time>2023-10-30T08:15:45Z</time>
      </trkpt>
      <trkpt lat="45.67633" lon="4.50702">
        <ele>867</ele>
        <time>2023-10-30T08:16:00Z</time>
      </trkpt>
      <trkpt lat="45.67655" lon="4.50709">
        <ele>867</ele>
        <time>2023-10-30T08:16:18Z</time>
      </trkpt>
      <trkpt lat="45.67759" lon="4.50771">
        <ele>872</ele>
        <time>2023-10-30T08:17:48Z</time>
      </trkpt>
      <trkpt lat="45.67763" lon="4.5077">
        <ele>873</ele>
        <time>2023-10-30T08:17:51Z</time>
      </trkpt>
      <trkpt lat="45.67759" lon="4.50771">
        <ele>872</ele>
        <time>2023-10-30T08:17:55Z</time>
      </trkpt>
      <trkpt lat="45.67754" lon="4.50746">
        <ele>874</ele>
        <time>2023-10-30T08:18:09Z</time>
      </trkpt>
      <trkpt lat="45.67744" lon="4.50721">
        <ele>877</ele>
        <time>2023-10-30T08:18:25Z</time>
      </trkpt>
      <trkpt lat="45.67712" lon="4.50665">
        <ele>883</ele>
        <time>2023-10-30T08:19:06Z</time>
      </trkpt>
      <trkpt lat="45.67701" lon="4.5063">
        <ele>887</ele>
        <time>2023-10-30T08:19:27Z</time>
      </trkpt>
      <trkpt lat="45.67686" lon="4.50596">
        <ele>890</ele>
        <time>2023-10-30T08:19:50Z</time>
      </trkpt>
      <trkpt lat="45.67674" lon="4.50564">
        <ele>892</ele>
        <time>2023-10-30T08:20:10Z</time>
      </trkpt>
      <trkpt lat="45.67673" lon="4.50553">
        <ele>893</ele>
        <time>2023-10-30T08:20:16Z</time>
      </trkpt>
      <trkpt lat="45.67676" lon="4.50542">
        <ele>893</ele>
        <time>2023-10-30T08:20:23Z</time>
      </trkpt>
      <trkpt lat="45.67684" lon="4.50534">
        <ele>895</ele>
        <time>2023-10-30T08:20:31Z</time>
      </trkpt>
      <trkpt lat="45.67711" lon="4.5052">
        <ele>898</ele>
        <time>2023-10-30T08:20:54Z</time>
      </trkpt>
      <trkpt lat="45.67714" lon="4.50519">
        <ele>899</ele>
        <time>2023-10-30T08:20:56Z</time>
      </trkpt>
      <trkpt lat="45.67663" lon="4.50439">
        <ele>895</ele>
        <time>2023-10-30T08:21:57Z</time>
      </trkpt>
      <trkpt lat="45.67631" lon="4.50379">
        <ele>891</ele>
        <time>2023-10-30T08:22:39Z</time>
      </trkpt>
      <trkpt lat="45.67609" lon="4.50311">
        <ele>885</ele>
        <time>2023-10-30T08:23:21Z</time>
      </trkpt>
      <trkpt lat="45.67579" lon="4.50245">
        <ele>880</ele>
        <time>2023-10-30T08:24:05Z</time>
      </trkpt>
      <trkpt lat="45.67557" lon="4.5014">
        <ele>875</ele>
        <time>2023-10-30T08:25:06Z</time>
      </trkpt>
      <trkpt lat="45.67558" lon="4.50105">
        <ele>872</ele>
        <time>2023-10-30T08:25:26Z</time>
      </trkpt>
      <trkpt lat="45.67558" lon="4.50096">
        <ele>871</ele>
        <time>2023-10-30T08:25:31Z</time>
      </trkpt>
      <trkpt lat="45.67567" lon="4.50107">
        <ele>870</ele>
        <time>2023-10-30T08:25:40Z</time>
      </trkpt>
      <trkpt lat="45.67608" lon="4.5012">
        <ele>869</ele>
        <time>2023-10-30T08:26:14Z</time>
      </trkpt>
      <trkpt lat="45.67679" lon="4.50069">
        <ele>869</ele>
        <time>2023-10-30T08:27:18Z</time>
      </trkpt>
      <trkpt lat="45.67682" lon="4.50049">
        <ele>868</ele>
        <time>2023-10-30T08:27:29Z</time>
      </trkpt>
      <trkpt lat="45.67682" lon="4.50009">
        <ele>866</ele>
        <time>2023-10-30T08:27:51Z</time>
      </trkpt>
      <trkpt lat="45.67688" lon="4.49964">
        <ele>863</ele>
        <time>2023-10-30T08:28:17Z</time>
      </trkpt>
      <trkpt lat="45.67694" lon="4.4994">
        <ele>863</ele>
        <time>2023-10-30T08:28:31Z</time>
      </trkpt>
      <trkpt lat="45.6771" lon="4.49921">
        <ele>864</ele>
        <time>2023-10-30T08:28:48Z</time>
      </trkpt>
      <trkpt lat="45.67728" lon="4.49908">
        <ele>866</ele>
        <time>2023-10-30T08:29:04Z</time>
      </trkpt>
      <trkpt lat="45.67741" lon="4.49894">
        <ele>867</ele>
        <time>2023-10-30T08:29:17Z</time>
      </trkpt>
      <trkpt lat="45.67764" lon="4.49856">
        <ele>866</ele>
        <time>2023-10-30T08:29:45Z</time>
      </trkpt>
      <trkpt lat="45.67841" lon="4.4975">
        <ele>863</ele>
        <time>2023-10-30T08:31:11Z</time>
      </trkpt>
      <trkpt lat="45.67855" lon="4.49708">
        <ele>859</ele>
        <time>2023-10-30T08:31:37Z</time>
      </trkpt>
      <trkpt lat="45.67874" lon="4.49641">
        <ele>850</ele>
        <time>2023-10-30T08:32:17Z</time>
      </trkpt>
      <trkpt lat="45.67876" lon="4.49617">
        <ele>846</ele>
        <time>2023-10-30T08:32:31Z</time>
      </trkpt>
      <trkpt lat="45.67876" lon="4.49611">
        <ele>845</ele>
        <time>2023-10-30T08:32:34Z</time>
      </trkpt>
      <trkpt lat="45.67971" lon="4.49495">
        <ele>836</ele>
        <time>2023-10-30T08:34:14Z</time>
      </trkpt>
      <trkpt lat="45.68018" lon="4.49449">
        <ele>827</ele>
        <time>2023-10-30T08:35:00Z</time>
      </trkpt>
      <trkpt lat="45.68049" lon="4.49435">
        <ele>822</ele>
        <time>2023-10-30T08:35:26Z</time>
      </trkpt>
      <trkpt lat="45.68104" lon="4.49421">
        <ele>813</ele>
        <time>2023-10-30T08:36:10Z</time>
      </trkpt>
      <trkpt lat="45.68136" lon="4.49403">
        <ele>808</ele>
        <time>2023-10-30T08:36:38Z</time>
      </trkpt>
      <trkpt lat="45.68177" lon="4.49364">
        <ele>804</ele>
        <time>2023-10-30T08:37:17Z</time>
      </trkpt>
      <trkpt lat="45.68177" lon="4.49368">
        <ele>804</ele>
        <time>2023-10-30T08:37:20Z</time>
      </trkpt>
      <trkpt lat="45.68203" lon="4.49572">
        <ele>810</ele>
        <time>2023-10-30T08:39:16Z</time>
      </trkpt>
      <trkpt lat="45.68217" lon="4.49669">
        <ele>813</ele>
        <time>2023-10-30T08:40:11Z</time>
      </trkpt>
      <trkpt lat="45.68226" lon="4.49707">
        <ele>814</ele>
        <time>2023-10-30T08:40:33Z</time>
      </trkpt>
      <trkpt lat="45.68228" lon="4.49726">
        <ele>816</ele>
        <time>2023-10-30T08:40:44Z</time>
      </trkpt>
      <trkpt lat="45.68232" lon="4.49768">
        <ele>820</ele>
        <time>2023-10-30T08:41:08Z</time>
      </trkpt>
      <trkpt lat="45.68246" lon="4.49827">
        <ele>824</ele>
        <time>2023-10-30T08:41:43Z</time>
      </trkpt>
      <trkpt lat="45.6826" lon="4.49876">
        <ele>828</ele>
        <time>2023-10-30T08:42:12Z</time>
      </trkpt>
      <trkpt lat="45.68293" lon="4.49954">
        <ele>831</ele>
        <time>2023-10-30T08:43:03Z</time>
      </trkpt>
      <trkpt lat="45.68305" lon="4.4999">
        <ele>833</ele>
        <time>2023-10-30T08:43:26Z</time>
      </trkpt>
      <trkpt lat="45.68316" lon="4.50047">
        <ele>838</ele>
        <time>2023-10-30T08:43:59Z</time>
      </trkpt>
      <trkpt lat="45.68337" lon="4.5014">
        <ele>840</ele>
        <time>2023-10-30T08:44:53Z</time>
      </trkpt>
      <trkpt lat="45.6834" lon="4.50274">
        <ele>843</ele>
        <time>2023-10-30T08:46:08Z</time>
      </trkpt>
      <trkpt lat="45.68335" lon="4.50311">
        <ele>846</ele>
        <time>2023-10-30T08:46:30Z</time>
      </trkpt>
      <trkpt lat="45.68307" lon="4.50398">
        <ele>857</ele>
        <time>2023-10-30T08:47:23Z</time>
      </trkpt>
      <trkpt lat="45.68298" lon="4.50435">
        <ele>858</ele>
        <time>2023-10-30T08:47:45Z</time>
      </trkpt>
      <trkpt lat="45.68289" lon="4.5048">
        <ele>858</ele>
        <time>2023-10-30T08:48:11Z</time>
      </trkpt>
      <trkpt lat="45.68276" lon="4.50512">
        <ele>861</ele>
        <time>2023-10-30T08:48:32Z</time>
      </trkpt>
      <trkpt lat="45.68241" lon="4.50606">
        <ele>869</ele>
        <time>2023-10-30T08:49:32Z</time>
      </trkpt>
      <trkpt lat="45.68237" lon="4.50652">
        <ele>867</ele>
        <time>2023-10-30T08:49:57Z</time>
      </trkpt>
      <trkpt lat="45.68234" lon="4.50667">
        <ele>867</ele>
        <time>2023-10-30T08:50:06Z</time>
      </trkpt>
      <trkpt lat="45.68244" lon="4.50741">
        <ele>869</ele>
        <time>2023-10-30T08:50:48Z</time>
      </trkpt>
      <trkpt lat="45.68253" lon="4.50862">
        <ele>870</ele>
        <time>2023-10-30T08:51:56Z</time>
      </trkpt>
      <trkpt lat="45.68246" lon="4.51073">
        <ele>868</ele>
        <time>2023-10-30T08:53:55Z</time>
      </trkpt>
      <trkpt lat="45.68246" lon="4.51209">
        <ele>868</ele>
        <time>2023-10-30T08:55:11Z</time>
      </trkpt>
      <trkpt lat="45.68243" lon="4.51235">
        <ele>867</ele>
        <time>2023-10-30T08:55:25Z</time>
      </trkpt>
      <trkpt lat="45.68236" lon="4.51259">
        <ele>867</ele>
        <time>2023-10-30T08:55:40Z</time>
      </trkpt>
      <trkpt lat="45.68228" lon="4.5127">
        <ele>866</ele>
        <time>2023-10-30T08:55:49Z</time>
      </trkpt>
      <trkpt lat="45.68229" lon="4.51272">
        <ele>866</ele>
        <time>2023-10-30T08:55:50Z</time>
      </trkpt>
      <trkpt lat="45.68238" lon="4.51297">
        <ele>865</ele>
        <time>2023-10-30T08:56:06Z</time>
      </trkpt>
      <trkpt lat="45.68251" lon="4.51355">
        <ele>862</ele>
        <time>2023-10-30T08:56:40Z</time>
      </trkpt>
      <trkpt lat="45.68266" lon="4.5141">
        <ele>859</ele>
        <time>2023-10-30T08:57:13Z</time>
      </trkpt>
      <trkpt lat="45.68271" lon="4.51439">
        <ele>859</ele>
        <time>2023-10-30T08:57:30Z</time>
      </trkpt>
      <trkpt lat="45.68277" lon="4.51545">
        <ele>859</ele>
        <time>2023-10-30T08:58:29Z</time>
      </trkpt>
      <trkpt lat="45.68281" lon="4.51565">
        <ele>859</ele>
        <time>2023-10-30T08:58:41Z</time>
      </trkpt>
      <trkpt lat="45.68296" lon="4.51611">
        <ele>858</ele>
        <time>2023-10-30T08:59:09Z</time>
      </trkpt>
      <trkpt lat="45.68321" lon="4.51672">
        <ele>855</ele>
        <time>2023-10-30T08:59:49Z</time>
      </trkpt>
      <trkpt lat="45.68341" lon="4.51734">
        <ele>851</ele>
        <time>2023-10-30T09:00:27Z</time>
      </trkpt>
      <trkpt lat="45.68344" lon="4.51753">
        <ele>849</ele>
        <time>2023-10-30T09:00:38Z</time>
      </trkpt>
      <trkpt lat="45.68343" lon="4.518">
        <ele>846</ele>
        <time>2023-10-30T09:01:04Z</time>
      </trkpt>
      <trkpt lat="45.68348" lon="4.51842">
        <ele>845</ele>
        <time>2023-10-30T09:01:28Z</time>
      </trkpt>
      <trkpt lat="45.68354" lon="4.51937">
        <ele>845</ele>
        <time>2023-10-30T09:02:21Z</time>
      </trkpt>
      <trkpt lat="45.68359" lon="4.51973">
        <ele>842</ele>
        <time>2023-10-30T09:02:42Z</time>
      </trkpt>
      <trkpt lat="45.68357" lon="4.52021">
        <ele>837</ele>
        <time>2023-10-30T09:03:09Z</time>
      </trkpt>
      <trkpt lat="45.68359" lon="4.52054">
        <ele>834</ele>
        <time>2023-10-30T09:03:27Z</time>
      </trkpt>
      <trkpt lat="45.68369" lon="4.52122">
        <ele>829</ele>
        <time>2023-10-30T09:04:06Z</time>
      </trkpt>
      <trkpt lat="45.68369" lon="4.52168">
        <ele>826</ele>
        <time>2023-10-30T09:04:32Z</time>
      </trkpt>
      <trkpt lat="45.68368" lon="4.52207">
        <ele>825</ele>
        <time>2023-10-30T09:04:54Z</time>
      </trkpt>
      <trkpt lat="45.68363" lon="4.52242">
        <ele>823</ele>
        <time>2023-10-30T09:05:14Z</time>
      </trkpt>
      <trkpt lat="45.68358" lon="4.52275">
        <ele>819</ele>
        <time>2023-10-30T09:05:33Z</time>
      </trkpt>
      <trkpt lat="45.68357" lon="4.52305">
        <ele>817</ele>
        <time>2023-10-30T09:05:49Z</time>
      </trkpt>
      <trkpt lat="45.68359" lon="4.5232">
        <ele>816</ele>
        <time>2023-10-30T09:05:58Z</time>
      </trkpt>
      <trkpt lat="45.68369" lon="4.52366">
        <ele>815</ele>
        <time>2023-10-30T09:06:25Z</time>
      </trkpt>
      <trkpt lat="45.68392" lon="4.52426">
        <ele>813</ele>
        <time>2023-10-30T09:07:03Z</time>
      </trkpt>
      <trkpt lat="45.68437" lon="4.52527">
        <ele>807</ele>
        <time>2023-10-30T09:08:10Z</time>
      </trkpt>
      <trkpt lat="45.68438" lon="4.52535">
        <ele>806</ele>
        <time>2023-10-30T09:08:15Z</time>
      </trkpt>
      <trkpt lat="45.68458" lon="4.52553">
        <ele>806</ele>
        <time>2023-10-30T09:08:34Z</time>
      </trkpt>
      <trkpt lat="45.68457" lon="4.52555">
        <ele>806</ele>
        <time>2023-10-30T09:08:35Z</time>
      </trkpt>
      <trkpt lat="45.68451" lon="4.52574">
        <ele>805</ele>
        <time>2023-10-30T09:08:47Z</time>
      </trkpt>
      <trkpt lat="45.68448" lon="4.52591">
        <ele>804</ele>
        <time>2023-10-30T09:08:57Z</time>
      </trkpt>
      <trkpt lat="45.68443" lon="4.52715">
        <ele>801</ele>
        <time>2023-10-30T09:10:06Z</time>
      </trkpt>
      <trkpt lat="45.68435" lon="4.52823">
        <ele>797</ele>
        <time>2023-10-30T09:11:07Z</time>
      </trkpt>
      <trkpt lat="45.68436" lon="4.52851">
        <ele>796</ele>
        <time>2023-10-30T09:11:22Z</time>
      </trkpt>
      <trkpt lat="45.68447" lon="4.52881">
        <ele>795</ele>
        <time>2023-10-30T09:11:41Z</time>
      </trkpt>
      <trkpt lat="45.68482" lon="4.52963">
        <ele>792</ele>
        <time>2023-10-30T09:12:35Z</time>
      </trkpt>
      <trkpt lat="45.68514" lon="4.53032">
        <ele>790</ele>
        <time>2023-10-30T09:13:22Z</time>
      </trkpt>
      <trkpt lat="45.68515" lon="4.53046">
        <ele>790</ele>
        <time>2023-10-30T09:13:29Z</time>
      </trkpt>
      <trkpt lat="45.68521" lon="4.53049">
        <ele>790</ele>
        <time>2023-10-30T09:13:34Z</time>
      </trkpt>
      <trkpt lat="45.68526" lon="4.53055">
        <ele>790</ele>
        <time>2023-10-30T09:13:40Z</time>
      </trkpt>
      <trkpt lat="45.68599" lon="4.53219">
        <ele>795</ele>
        <time>2023-10-30T09:15:28Z</time>
      </trkpt>
      <trkpt lat="45.68619" lon="4.53249">
        <ele>796</ele>
        <time>2023-10-30T09:15:52Z</time>
      </trkpt>
      <trkpt lat="45.68765" lon="4.53435">
        <ele>790</ele>
        <time>2023-10-30T09:18:28Z</time>
      </trkpt>
      <trkpt lat="45.68784" lon="4.53452">
        <ele>789</ele>
        <time>2023-10-30T09:18:46Z</time>
      </trkpt>
      <trkpt lat="45.68803" lon="4.53465">
        <ele>789</ele>
        <time>2023-10-30T09:19:03Z</time>
      </trkpt>
      <trkpt lat="45.68875" lon="4.53492">
        <ele>786</ele>
        <time>2023-10-30T09:20:03Z</time>
      </trkpt>
      <trkpt lat="45.68899" lon="4.53506">
        <ele>785</ele>
        <time>2023-10-30T09:20:23Z</time>
      </trkpt>
      <trkpt lat="45.68914" lon="4.53517">
        <ele>783</ele>
        <time>2023-10-30T09:20:37Z</time>
      </trkpt>
      <trkpt lat="45.6895" lon="4.5355">
        <ele>781</ele>
        <time>2023-10-30T09:21:11Z</time>
      </trkpt>
      <trkpt lat="45.68948" lon="4.53555">
        <ele>782</ele>
        <time>2023-10-30T09:21:14Z</time>
      </trkpt>
      <trkpt lat="45.68942" lon="4.53573">
        <ele>784</ele>
        <time>2023-10-30T09:21:25Z</time>
      </trkpt>
      <trkpt lat="45.68935" lon="4.53628">
        <ele>786</ele>
        <time>2023-10-30T09:21:57Z</time>
      </trkpt>
      <trkpt lat="45.69062" lon="4.53896">
        <ele>780</ele>
        <time>2023-10-30T09:24:58Z</time>
      </trkpt>
      <trkpt lat="45.69066" lon="4.53904">
        <ele>780</ele>
        <time>2023-10-30T09:25:03Z</time>
      </trkpt>
      <trkpt lat="45.69066" lon="4.53925">
        <ele>779</ele>
        <time>2023-10-30T09:25:15Z</time>
      </trkpt>
      <trkpt lat="45.69099" lon="4.54001">
        <ele>785</ele>
        <time>2023-10-30T09:26:05Z</time>
      </trkpt>
      <trkpt lat="45.69154" lon="4.54093">
        <ele>795</ele>
        <time>2023-10-30T09:27:13Z</time>
      </trkpt>
      <trkpt lat="45.69229" lon="4.54146">
        <ele>811</ele>
        <time>2023-10-30T09:28:20Z</time>
      </trkpt>
      <trkpt lat="45.69322" lon="4.54153">
        <ele>823</ele>
        <time>2023-10-30T09:29:34Z</time>
      </trkpt>
      <trkpt lat="45.69466" lon="4.54333">
        <ele>816</ele>
        <time>2023-10-30T09:32:07Z</time>
      </trkpt>
      <trkpt lat="45.69516" lon="4.54442">
        <ele>814</ele>
        <time>2023-10-30T09:33:20Z</time>
      </trkpt>
      <trkpt lat="45.69522" lon="4.54453">
        <ele>814</ele>
        <time>2023-10-30T09:33:28Z</time>
      </trkpt>
      <trkpt lat="45.69529" lon="4.54475">
        <ele>815</ele>
        <time>2023-10-30T09:33:42Z</time>
      </trkpt>
      <trkpt lat="45.69537" lon="4.54495">
        <ele>815</ele>
        <time>2023-10-30T09:33:55Z</time>
      </trkpt>
      <trkpt lat="45.69549" lon="4.54515">
        <ele>815</ele>
        <time>2023-10-30T09:34:09Z</time>
      </trkpt>
      <trkpt lat="45.69559" lon="4.54527">
        <ele>815</ele>
        <time>2023-10-30T09:34:20Z</time>
      </trkpt>
      <trkpt lat="45.69591" lon="4.54551">
        <ele>813</ele>
        <time>2023-10-30T09:34:49Z</time>
      </trkpt>
      <trkpt lat="45.69655" lon="4.54594">
        <ele>815</ele>
        <time>2023-10-30T09:35:45Z</time>
      </trkpt>
      <trkpt lat="45.69667" lon="4.54604">
        <ele>816</ele>
        <time>2023-10-30T09:35:56Z</time>
      </trkpt>
      <trkpt lat="45.69691" lon="4.54637">
        <ele>818</ele>
        <time>2023-10-30T09:36:23Z</time>
      </trkpt>
      <trkpt lat="45.69729" lon="4.54696">
        <ele>820</ele>
        <time>2023-10-30T09:37:08Z</time>
      </trkpt>
      <trkpt lat="45.69748" lon="4.5472">
        <ele>819</ele>
        <time>2023-10-30T09:37:28Z</time>
      </trkpt>
      <trkpt lat="45.69762" lon="4.54732">
        <ele>819</ele>
        <time>2023-10-30T09:37:41Z</time>
      </trkpt>
      <trkpt lat="45.6978" lon="4.54745">
        <ele>819</ele>
        <time>2023-10-30T09:37:57Z</time>
      </trkpt>
      <trkpt lat="45.69798" lon="4.54755">
        <ele>819</ele>
        <time>2023-10-30T09:38:13Z</time>
      </trkpt>
      <trkpt lat="45.6983" lon="4.54762">
        <ele>819</ele>
        <time>2023-10-30T09:38:39Z</time>
      </trkpt>
      <trkpt lat="45.69832" lon="4.54762">
        <ele>819</ele>
        <time>2023-10-30T09:38:40Z</time>
      </trkpt>
      <trkpt lat="45.69834" lon="4.54777">
        <ele>819</ele>
        <time>2023-10-30T09:38:49Z</time>
      </trkpt>
      <trkpt lat="45.69842" lon="4.54794">
        <ele>819</ele>
        <time>2023-10-30T09:39:00Z</time>
      </trkpt>
      <trkpt lat="45.69902" lon="4.54835">
        <ele>822</ele>
        <time>2023-10-30T09:39:54Z</time>
      </trkpt>
      <trkpt lat="45.69925" lon="4.5486">
        <ele>825</ele>
        <time>2023-10-30T09:40:17Z</time>
      </trkpt>
      <trkpt lat="45.69959" lon="4.54902">
        <ele>828</ele>
        <time>2023-10-30T09:40:53Z</time>
      </trkpt>
      <trkpt lat="45.70026" lon="4.54998">
        <ele>837</ele>
        <time>2023-10-30T09:42:09Z</time>
      </trkpt>
      <trkpt lat="45.70043" lon="4.55026">
        <ele>839</ele>
        <time>2023-10-30T09:42:29Z</time>
      </trkpt>
      <trkpt lat="45.70069" lon="4.55081">
        <ele>841</ele>
        <time>2023-10-30T09:43:06Z</time>
      </trkpt>
      <trkpt lat="45.70081" lon="4.55114">
        <ele>843</ele>
        <time>2023-10-30T09:43:27Z</time>
      </trkpt>
      <trkpt lat="45.70091" lon="4.55147">
        <ele>845</ele>
        <time>2023-10-30T09:43:47Z</time>
      </trkpt>
      <trkpt lat="45.70105" lon="4.55222">
        <ele>844</ele>
        <time>2023-10-30T09:44:31Z</time>
      </trkpt>
      <trkpt lat="45.70104" lon="4.55294">
        <ele>844</ele>
        <time>2023-10-30T09:45:11Z</time>
      </trkpt>
      <trkpt lat="45.70106" lon="4.55326">
        <ele>843</ele>
        <time>2023-10-30T09:45:29Z</time>
      </trkpt>
      <trkpt lat="45.70112" lon="4.55355">
        <ele>843</ele>
        <time>2023-10-30T09:45:46Z</time>
      </trkpt>
      <trkpt lat="45.70119" lon="4.55369">
        <ele>842</ele>
        <time>2023-10-30T09:45:56Z</time>
      </trkpt>
      <trkpt lat="45.70126" lon="4.55374">
        <ele>841</ele>
        <time>2023-10-30T09:46:02Z</time>
      </trkpt>
      <trkpt lat="45.70133" lon="4.5538">
        <ele>841</ele>
        <time>2023-10-30T09:46:08Z</time>
      </trkpt>
      <trkpt lat="45.70166" lon="4.55429">
        <ele>840</ele>
        <time>2023-10-30T09:46:46Z</time>
      </trkpt>
      <trkpt lat="45.70183" lon="4.55464">
        <ele>842</ele>
        <time>2023-10-30T09:47:10Z</time>
      </trkpt>
      <trkpt lat="45.70188" lon="4.55481">
        <ele>843</ele>
        <time>2023-10-30T09:47:21Z</time>
      </trkpt>
      <trkpt lat="45.70194" lon="4.55515">
        <ele>845</ele>
        <time>2023-10-30T09:47:40Z</time>
      </trkpt>
      <trkpt lat="45.70201" lon="4.55585">
        <ele>852</ele>
        <time>2023-10-30T09:48:20Z</time>
      </trkpt>
      <trkpt lat="45.70205" lon="4.55603">
        <ele>853</ele>
        <time>2023-10-30T09:48:30Z</time>
      </trkpt>
      <trkpt lat="45.70211" lon="4.5562">
        <ele>853</ele>
        <time>2023-10-30T09:48:41Z</time>
      </trkpt>
      <trkpt lat="45.70219" lon="4.55635">
        <ele>852</ele>
        <time>2023-10-30T09:48:52Z</time>
      </trkpt>
      <trkpt lat="45.70232" lon="4.5565">
        <ele>851</ele>
        <time>2023-10-30T09:49:05Z</time>
      </trkpt>
      <trkpt lat="45.70236" lon="4.55656">
        <ele>851</ele>
        <time>2023-10-30T09:49:10Z</time>
      </trkpt>
      <trkpt lat="45.70247" lon="4.55676">
        <ele>850</ele>
        <time>2023-10-30T09:49:24Z</time>
      </trkpt>
      <trkpt lat="45.70265" lon="4.55694">
        <ele>849</ele>
        <time>2023-10-30T09:49:41Z</time>
      </trkpt>
      <trkpt lat="45.70275" lon="4.55713">
        <ele>850</ele>
        <time>2023-10-30T09:49:55Z</time>
      </trkpt>
      <trkpt lat="45.70286" lon="4.55744">
        <ele>851</ele>
        <time>2023-10-30T09:50:14Z</time>
      </trkpt>
      <trkpt lat="45.70306" lon="4.55837">
        <ele>851</ele>
        <time>2023-10-30T09:51:09Z</time>
      </trkpt>
      <trkpt lat="45.70316" lon="4.55877">
        <ele>848</ele>
        <time>2023-10-30T09:51:32Z</time>
      </trkpt>
      <trkpt lat="45.70325" lon="4.55897">
        <ele>848</ele>
        <time>2023-10-30T09:51:46Z</time>
      </trkpt>
      <trkpt lat="45.70379" lon="4.55969">
        <ele>849</ele>
        <time>2023-10-30T09:52:45Z</time>
      </trkpt>
      <trkpt lat="45.70385" lon="4.55991">
        <ele>847</ele>
        <time>2023-10-30T09:52:58Z</time>
      </trkpt>
      <trkpt lat="45.70388" lon="4.56017">
        <ele>847</ele>
        <time>2023-10-30T09:53:13Z</time>
      </trkpt>
      <trkpt lat="45.70388" lon="4.56034">
        <ele>847</ele>
        <time>2023-10-30T09:53:22Z</time>
      </trkpt>
      <trkpt lat="45.70372" lon="4.56115">
        <ele>850</ele>
        <time>2023-10-30T09:54:09Z</time>
      </trkpt>
      <trkpt lat="45.70344" lon="4.56202">
        <ele>853</ele>
        <time>2023-10-30T09:55:03Z</time>
      </trkpt>
      <trkpt lat="45.70325" lon="4.56238">
        <ele>854</ele>
        <time>2023-10-30T09:55:28Z</time>
      </trkpt>
      <trkpt lat="45.70241" lon="4.56327">
        <ele>863</ele>
        <time>2023-10-30T09:56:52Z</time>
      </trkpt>
      <trkpt lat="45.70203" lon="4.56362">
        <ele>871</ele>
        <time>2023-10-30T09:57:28Z</time>
      </trkpt>
      <trkpt lat="45.70161" lon="4.564">
        <ele>876</ele>
        <time>2023-10-30T09:58:08Z</time>
      </trkpt>
      <trkpt lat="45.70149" lon="4.56427">
        <ele>879</ele>
        <time>2023-10-30T09:58:25Z</time>
      </trkpt>
      <trkpt lat="45.70143" lon="4.56454">
        <ele>879</ele>
        <time>2023-10-30T09:58:41Z</time>
      </trkpt>
      <trkpt lat="45.70143" lon="4.56452">
        <ele>879</ele>
        <time>2023-10-30T09:58:42Z</time>
      </trkpt>
      <trkpt lat="45.70081" lon="4.56451">
        <ele>881</ele>
        <time>2023-10-30T09:59:32Z</time>
      </trkpt>
      <trkpt lat="45.70041" lon="4.56469">
        <ele>883</ele>
        <time>2023-10-30T10:00:06Z</time>
      </trkpt>
      <trkpt lat="45.6998" lon="4.56486">
        <ele>884</ele>
        <time>2023-10-30T10:00:55Z</time>
      </trkpt>
      <trkpt lat="45.69977" lon="4.56487">
        <ele>884</ele>
        <time>2023-10-30T10:00:58Z</time>
      </trkpt>
      <trkpt lat="45.69936" lon="4.56475">
        <ele>880</ele>
        <time>2023-10-30T10:01:31Z</time>
      </trkpt>
      <trkpt lat="45.69847" lon="4.56478">
        <ele>875</ele>
        <time>2023-10-30T10:02:43Z</time>
      </trkpt>
      <trkpt lat="45.69666" lon="4.56439">
        <ele>872</ele>
        <time>2023-10-30T10:05:09Z</time>
      </trkpt>
      <trkpt lat="45.69532" lon="4.56462">
        <ele>867</ele>
        <time>2023-10-30T10:06:57Z</time>
      </trkpt>
      <trkpt lat="45.69458" lon="4.56503">
        <ele>859</ele>
        <time>2023-10-30T10:08:01Z</time>
      </trkpt>
      <trkpt lat="45.6941" lon="4.56536">
        <ele>851</ele>
        <time>2023-10-30T10:08:43Z</time>
      </trkpt>
      <trkpt lat="45.69369" lon="4.56542">
        <ele>849</ele>
        <time>2023-10-30T10:09:16Z</time>
      </trkpt>
      <trkpt lat="45.69282" lon="4.56575">
        <ele>842</ele>
        <time>2023-10-30T10:10:29Z</time>
      </trkpt>
      <trkpt lat="45.69254" lon="4.56597">
        <ele>838</ele>
        <time>2023-10-30T10:10:54Z</time>
      </trkpt>
      <trkpt lat="45.69234" lon="4.56628">
        <ele>835</ele>
        <time>2023-10-30T10:11:18Z</time>
      </trkpt>
      <trkpt lat="45.69214" lon="4.56647">
        <ele>831</ele>
        <time>2023-10-30T10:11:37Z</time>
      </trkpt>
      <trkpt lat="45.69187" lon="4.56639">
        <ele>827</ele>
        <time>2023-10-30T10:11:59Z</time>
      </trkpt>
      <trkpt lat="45.69169" lon="4.56678">
        <ele>823</ele>
        <time>2023-10-30T10:12:25Z</time>
      </trkpt>
      <trkpt lat="45.69147" lon="4.56703">
        <ele>819</ele>
        <time>2023-10-30T10:12:48Z</time>
      </trkpt>
      <trkpt lat="45.69135" lon="4.56733">
        <ele>817</ele>
        <time>2023-10-30T10:13:07Z</time>
      </trkpt>
      <trkpt lat="45.69135" lon="4.56745">
        <ele>816</ele>
        <time>2023-10-30T10:13:14Z</time>
      </trkpt>
      <trkpt lat="45.69133" lon="4.56748">
        <ele>816</ele>
        <time>2023-10-30T10:13:16Z</time>
      </trkpt>
      <trkpt lat="45.69061" lon="4.56831">
        <ele>811</ele>
        <time>2023-10-30T10:14:30Z</time>
      </trkpt>
      <trkpt lat="45.69037" lon="4.56869">
        <ele>811</ele>
        <time>2023-10-30T10:14:59Z</time>
      </trkpt>
      <trkpt lat="45.69023" lon="4.56931">
        <ele>812</ele>
        <time>2023-10-30T10:15:35Z</time>
      </trkpt>
      <trkpt lat="45.69004" lon="4.56977">
        <ele>813</ele>
        <time>2023-10-30T10:16:05Z</time>
      </trkpt>
      <trkpt lat="45.68969" lon="4.57009">
        <ele>811</ele>
        <time>2023-10-30T10:16:38Z</time>
      </trkpt>
      <trkpt lat="45.68932" lon="4.57035">
        <ele>809</ele>
        <time>2023-10-30T10:17:11Z</time>
      </trkpt>
      <trkpt lat="45.68899" lon="4.57063">
        <ele>805</ele>
        <time>2023-10-30T10:17:42Z</time>
      </trkpt>
      <trkpt lat="45.68885" lon="4.57098">
        <ele>802</ele>
        <time>2023-10-30T10:18:05Z</time>
      </trkpt>
      <trkpt lat="45.68868" lon="4.5718">
        <ele>797</ele>
        <time>2023-10-30T10:18:52Z</time>
      </trkpt>
      <trkpt lat="45.68846" lon="4.57236">
        <ele>793</ele>
        <time>2023-10-30T10:19:28Z</time>
      </trkpt>
      <trkpt lat="45.68805" lon="4.57309">
        <ele>786</ele>
        <time>2023-10-30T10:20:21Z</time>
      </trkpt>
      <trkpt lat="45.68755" lon="4.57391">
        <ele>785</ele>
        <time>2023-10-30T10:21:22Z</time>
      </trkpt>
      <trkpt lat="45.68707" lon="4.57475">
        <ele>777</ele>
        <time>2023-10-30T10:22:22Z</time>
      </trkpt>
      <trkpt lat="45.68657" lon="4.57551">
        <ele>772</ele>
        <time>2023-10-30T10:23:21Z</time>
      </trkpt>
      <trkpt lat="45.68636" lon="4.57578">
        <ele>771</ele>
        <time>2023-10-30T10:23:43Z</time>
      </trkpt>
      <trkpt lat="45.68629" lon="4.57583">
        <ele>770</ele>
        <time>2023-10-30T10:23:50Z</time>
      </trkpt>
      <trkpt lat="45.68622" lon="4.57597">
        <ele>770</ele>
        <time>2023-10-30T10:23:59Z</time>
      </trkpt>
      <trkpt lat="45.68592" lon="4.57648">
        <ele>769</ele>
        <time>2023-10-30T10:24:36Z</time>
      </trkpt>
      <trkpt lat="45.68577" lon="4.57686">
        <ele>769</ele>
        <time>2023-10-30T10:25:01Z</time>
      </trkpt>
      <trkpt lat="45.68569" lon="4.57711">
        <ele>770</ele>
        <time>2023-10-30T10:25:16Z</time>
      </trkpt>
      <trkpt lat="45.68565" lon="4.57739">
        <ele>770</ele>
        <time>2023-10-30T10:25:32Z</time>
      </trkpt>
      <trkpt lat="45.68559" lon="4.57796">
        <ele>772</ele>
        <time>2023-10-30T10:26:04Z</time>
      </trkpt>
      <trkpt lat="45.68545" lon="4.57836">
        <ele>774</ele>
        <time>2023-10-30T10:26:29Z</time>
      </trkpt>
      <trkpt lat="45.68544" lon="4.5785">
        <ele>774</ele>
        <time>2023-10-30T10:26:37Z</time>
      </trkpt>
      <trkpt lat="45.68548" lon="4.57883">
        <ele>774</ele>
        <time>2023-10-30T10:26:56Z</time>
      </trkpt>
      <trkpt lat="45.68552" lon="4.57934">
        <ele>772</ele>
        <time>2023-10-30T10:27:25Z</time>
      </trkpt>
      <trkpt lat="45.68552" lon="4.57961">
        <ele>771</ele>
        <time>2023-10-30T10:27:40Z</time>
      </trkpt>
      <trkpt lat="45.68547" lon="4.57998">
        <ele>772</ele>
        <time>2023-10-30T10:28:01Z</time>
      </trkpt>
      <trkpt lat="45.68538" lon="4.58046">
        <ele>771</ele>
        <time>2023-10-30T10:28:29Z</time>
      </trkpt>
      <trkpt lat="45.68514" lon="4.58157">
        <ele>770</ele>
        <time>2023-10-30T10:29:34Z</time>
      </trkpt>
      <trkpt lat="45.68503" lon="4.58201">
        <ele>770</ele>
        <time>2023-10-30T10:30:00Z</time>
      </trkpt>
      <trkpt lat="45.68496" lon="4.5822">
        <ele>770</ele>
        <time>2023-10-30T10:30:12Z</time>
      </trkpt>
      <trkpt lat="45.68487" lon="4.58236">
        <ele>770</ele>
        <time>2023-10-30T10:30:23Z</time>
      </trkpt>
      <trkpt lat="45.68474" lon="4.58254">
        <ele>769</ele>
        <time>2023-10-30T10:30:38Z</time>
      </trkpt>
      <trkpt lat="45.68436" lon="4.58292">
        <ele>763</ele>
        <time>2023-10-30T10:31:15Z</time>
      </trkpt>
      <trkpt lat="45.68402" lon="4.58309">
        <ele>759</ele>
        <time>2023-10-30T10:31:44Z</time>
      </trkpt>
      <trkpt lat="45.68396" lon="4.58314">
        <ele>758</ele>
        <time>2023-10-30T10:31:49Z</time>
      </trkpt>
      <trkpt lat="45.68389" lon="4.58321">
        <ele>756</ele>
        <time>2023-10-30T10:31:56Z</time>
      </trkpt>
      <trkpt lat="45.68378" lon="4.58341">
        <ele>755</ele>
        <time>2023-10-30T10:32:10Z</time>
      </trkpt>
      <trkpt lat="45.68365" lon="4.58354">
        <ele>754</ele>
        <time>2023-10-30T10:32:23Z</time>
      </trkpt>
      <trkpt lat="45.68348" lon="4.58364">
        <ele>754</ele>
        <time>2023-10-30T10:32:38Z</time>
      </trkpt>
      <trkpt lat="45.68333" lon="4.58357">
        <ele>754</ele>
        <time>2023-10-30T10:32:51Z</time>
      </trkpt>
      <trkpt lat="45.6823" lon="4.58328">
        <ele>735</ele>
        <time>2023-10-30T10:34:15Z</time>
      </trkpt>
      <trkpt lat="45.68211" lon="4.5828">
        <ele>736</ele>
        <time>2023-10-30T10:34:45Z</time>
      </trkpt>
      <trkpt lat="45.68105" lon="4.58111">
        <ele>738</ele>
        <time>2023-10-30T10:36:52Z</time>
      </trkpt>
      <trkpt lat="45.6804" lon="4.58044">
        <ele>738</ele>
        <time>2023-10-30T10:37:57Z</time>
      </trkpt>
      <trkpt lat="45.68019" lon="4.58027">
        <ele>738</ele>
        <time>2023-10-30T10:38:16Z</time>
      </trkpt>
      <trkpt lat="45.68011" lon="4.58013">
        <ele>741</ele>
        <time>2023-10-30T10:38:26Z</time>
      </trkpt>
      <trkpt lat="45.67952" lon="4.57984">
        <ele>745</ele>
        <time>2023-10-30T10:39:16Z</time>
      </trkpt>
      <trkpt lat="45.67929" lon="4.57979">
        <ele>746</ele>
        <time>2023-10-30T10:39:35Z</time>
      </trkpt>
      <trkpt lat="45.67866" lon="4.57986">
        <ele>744</ele>
        <time>2023-10-30T10:40:25Z</time>
      </trkpt>
      <trkpt lat="45.67789" lon="4.57987">
        <ele>745</ele>
        <time>2023-10-30T10:41:27Z</time>
      </trkpt>
      <trkpt lat="45.67752" lon="4.57971">
        <ele>750</ele>
        <time>2023-10-30T10:41:58Z</time>
      </trkpt>
      <trkpt lat="45.67695" lon="4.57933">
        <ele>759</ele>
        <time>2023-10-30T10:42:48Z</time>
      </trkpt>
      <trkpt lat="45.67653" lon="4.57881">
        <ele>766</ele>
        <time>2023-10-30T10:43:33Z</time>
      </trkpt>
      <trkpt lat="45.67627" lon="4.57837">
        <ele>771</ele>
        <time>2023-10-30T10:44:05Z</time>
      </trkpt>
      <trkpt lat="45.67616" lon="4.57778">
        <ele>773</ele>
        <time>2023-10-30T10:44:39Z</time>
      </trkpt>
      <trkpt lat="45.67604" lon="4.57721">
        <ele>772</ele>
        <time>2023-10-30T10:45:12Z</time>
      </trkpt>
      <trkpt lat="45.67597" lon="4.57697">
        <ele>771</ele>
        <time>2023-10-30T10:45:27Z</time>
      </trkpt>
      <trkpt lat="45.67589" lon="4.57672">
        <ele>770</ele>
        <time>2023-10-30T10:45:42Z</time>
      </trkpt>
      <trkpt lat="45.67559" lon="4.57592">
        <ele>762</ele>
        <time>2023-10-30T10:46:33Z</time>
      </trkpt>
      <trkpt lat="45.67539" lon="4.5755">
        <ele>758</ele>
        <time>2023-10-30T10:47:02Z</time>
      </trkpt>
      <trkpt lat="45.67519" lon="4.57522">
        <ele>756</ele>
        <time>2023-10-30T10:47:24Z</time>
      </trkpt>
      <trkpt lat="45.67483" lon="4.57497">
        <ele>752</ele>
        <time>2023-10-30T10:47:56Z</time>
      </trkpt>
      <trkpt lat="45.67439" lon="4.57441">
        <ele>738</ele>
        <time>2023-10-30T10:48:43Z</time>
      </trkpt>
      <trkpt lat="45.67425" lon="4.57434">
        <ele>735</ele>
        <time>2023-10-30T10:48:55Z</time>
      </trkpt>
      <trkpt lat="45.67408" lon="4.57412">
        <ele>729</ele>
        <time>2023-10-30T10:49:13Z</time>
      </trkpt>
      <trkpt lat="45.67388" lon="4.57399">
        <ele>723</ele>
        <time>2023-10-30T10:49:31Z</time>
      </trkpt>
      <trkpt lat="45.67355" lon="4.57359">
        <ele>712</ele>
        <time>2023-10-30T10:50:06Z</time>
      </trkpt>
      <trkpt lat="45.67316" lon="4.57328">
        <ele>704</ele>
        <time>2023-10-30T10:50:41Z</time>
      </trkpt>
      <trkpt lat="45.67308" lon="4.57315">
        <ele>702</ele>
        <time>2023-10-30T10:50:51Z</time>
      </trkpt>
      <trkpt lat="45.67311" lon="4.5731">
        <ele>702</ele>
        <time>2023-10-30T10:50:55Z</time>
      </trkpt>
      <trkpt lat="45.6727" lon="4.57278">
        <ele>695</ele>
        <time>2023-10-30T10:51:32Z</time>
      </trkpt>
      <trkpt lat="45.67203" lon="4.57236">
        <ele>685</ele>
        <time>2023-10-30T10:52:31Z</time>
      </trkpt>
      <trkpt lat="45.67189" lon="4.57213">
        <ele>684</ele>
        <time>2023-10-30T10:52:48Z</time>
      </trkpt>
      <trkpt lat="45.67181" lon="4.57211">
        <ele>684</ele>
        <time>2023-10-30T10:52:54Z</time>
      </trkpt>
      <trkpt lat="45.67147" lon="4.57236">
        <ele>683</ele>
        <time>2023-10-30T10:53:25Z</time>
      </trkpt>
      <trkpt lat="45.67082" lon="4.57243">
        <ele>687</ele>
        <time>2023-10-30T10:54:17Z</time>
      </trkpt>
      <trkpt lat="45.67027" lon="4.57259">
        <ele>697</ele>
        <time>2023-10-30T10:55:02Z</time>
      </trkpt>
      <trkpt lat="45.66992" lon="4.57269">
        <ele>703</ele>
        <time>2023-10-30T10:55:30Z</time>
      </trkpt>
      <trkpt lat="45.66975" lon="4.5725">
        <ele>709</ele>
        <time>2023-10-30T10:55:48Z</time>
      </trkpt>
      <trkpt lat="45.66968" lon="4.57232">
        <ele>711</ele>
        <time>2023-10-30T10:55:59Z</time>
      </trkpt>
      <trkpt lat="45.66976" lon="4.57166">
        <ele>711</ele>
        <time>2023-10-30T10:56:37Z</time>
      </trkpt>
      <trkpt lat="45.66969" lon="4.57164">
        <ele>713</ele>
        <time>2023-10-30T10:56:42Z</time>
      </trkpt>
      <trkpt lat="45.66958" lon="4.57161">
        <ele>716</ele>
        <time>2023-10-30T10:56:51Z</time>
      </trkpt>
      <trkpt lat="45.66942" lon="4.57175">
        <ele>720</ele>
        <time>2023-10-30T10:57:06Z</time>
      </trkpt>
      <trkpt lat="45.66931" lon="4.57181">
        <ele>723</ele>
        <time>2023-10-30T10:57:16Z</time>
      </trkpt>
      <trkpt lat="45.66919" lon="4.57179">
        <ele>726</ele>
        <time>2023-10-30T10:57:26Z</time>
      </trkpt>
      <trkpt lat="45.66901" lon="4.57165">
        <ele>729</ele>
        <time>2023-10-30T10:57:42Z</time>
      </trkpt>
      <trkpt lat="45.66888" lon="4.5714">
        <ele>732</ele>
        <time>2023-10-30T10:57:59Z</time>
      </trkpt>
      <trkpt lat="45.66878" lon="4.57139">
        <ele>734</ele>
        <time>2023-10-30T10:58:07Z</time>
      </trkpt>
      <trkpt lat="45.66864" lon="4.57147">
        <ele>736</ele>
        <time>2023-10-30T10:58:19Z</time>
      </trkpt>
      <trkpt lat="45.66846" lon="4.57149">
        <ele>739</ele>
        <time>2023-10-30T10:58:34Z</time>
      </trkpt>
      <trkpt lat="45.66833" lon="4.57143">
        <ele>742</ele>
        <time>2023-10-30T10:58:45Z</time>
      </trkpt>
      <trkpt lat="45.66812" lon="4.57118">
        <ele>745</ele>
        <time>2023-10-30T10:59:07Z</time>
      </trkpt>
      <trkpt lat="45.66713" lon="4.56977">
        <ele>752</ele>
        <time>2023-10-30T11:00:59Z</time>
      </trkpt>
      <trkpt lat="45.66676" lon="4.5692">
        <ele>753</ele>
        <time>2023-10-30T11:01:42Z</time>
      </trkpt>
      <trkpt lat="45.66661" lon="4.5689">
        <ele>753</ele>
        <time>2023-10-30T11:02:03Z</time>
      </trkpt>
      <trkpt lat="45.66622" lon="4.56795">
        <ele>752</ele>
        <time>2023-10-30T11:03:04Z</time>
      </trkpt>
      <trkpt lat="45.6658" lon="4.5665">
        <ele>749</ele>
        <time>2023-10-30T11:04:32Z</time>
      </trkpt>
      <trkpt lat="45.66578" lon="4.56642">
        <ele>749</ele>
        <time>2023-10-30T11:04:37Z</time>
      </trkpt>
      <trkpt lat="45.66476" lon="4.5651">
        <ele>747</ele>
        <time>2023-10-30T11:06:27Z</time>
      </trkpt>
      <trkpt lat="45.66426" lon="4.56422">
        <ele>743</ele>
        <time>2023-10-30T11:07:31Z</time>
      </trkpt>
      <trkpt lat="45.66396" lon="4.56375">
        <ele>739</ele>
        <time>2023-10-30T11:08:06Z</time>
      </trkpt>
      <trkpt lat="45.66319" lon="4.56294">
        <ele>736</ele>
        <time>2023-10-30T11:09:23Z</time>
      </trkpt>
      <trkpt lat="45.6631" lon="4.56291">
        <ele>736</ele>
        <time>2023-10-30T11:09:30Z</time>
      </trkpt>
      <trkpt lat="45.66307" lon="4.56297">
        <ele>736</ele>
        <time>2023-10-30T11:09:34Z</time>
      </trkpt>
      <trkpt lat="45.66302" lon="4.56299">
        <ele>736</ele>
        <time>2023-10-30T11:09:38Z</time>
      </trkpt>
      <trkpt lat="45.66299" lon="4.56298">
        <ele>736</ele>
        <time>2023-10-30T11:09:41Z</time>
      </trkpt>
      <trkpt lat="45.66297" lon="4.56294">
        <ele>736</ele>
        <time>2023-10-30T11:09:44Z</time>
      </trkpt>
      <trkpt lat="45.66294" lon="4.56289">
        <ele>736</ele>
        <time>2023-10-30T11:09:47Z</time>
      </trkpt>
      <trkpt lat="45.66258" lon="4.563">
        <ele>736</ele>
        <time>2023-10-30T11:10:17Z</time>
      </trkpt>
      <trkpt lat="45.66173" lon="4.56313">
        <ele>733</ele>
        <time>2023-10-30T11:11:25Z</time>
      </trkpt>
      <trkpt lat="45.66135" lon="4.56324">
        <ele>733</ele>
        <time>2023-10-30T11:11:56Z</time>
      </trkpt>
      <trkpt lat="45.66074" lon="4.56348">
        <ele>734</ele>
        <time>2023-10-30T11:12:47Z</time>
      </trkpt>
      <trkpt lat="45.66024" lon="4.56377">
        <ele>733</ele>
        <time>2023-10-30T11:13:30Z</time>
      </trkpt>
      <trkpt lat="45.65975" lon="4.56399">
        <ele>731</ele>
        <time>2023-10-30T11:14:11Z</time>
      </trkpt>
      <trkpt lat="45.65947" lon="4.5642">
        <ele>730</ele>
        <time>2023-10-30T11:14:37Z</time>
      </trkpt>
      <trkpt lat="45.65909" lon="4.56439">
        <ele>728</ele>
        <time>2023-10-30T11:15:09Z</time>
      </trkpt>
      <trkpt lat="45.65904" lon="4.5644">
        <ele>728</ele>
        <time>2023-10-30T11:15:13Z</time>
      </trkpt>
      <trkpt lat="45.65878" lon="4.56464">
        <ele>727</ele>
        <time>2023-10-30T11:15:38Z</time>
      </trkpt>
      <trkpt lat="45.65871" lon="4.56469">
        <ele>727</ele>
        <time>2023-10-30T11:15:44Z</time>
      </trkpt>
      <trkpt lat="45.65867" lon="4.56469">
        <ele>727</ele>
        <time>2023-10-30T11:15:47Z</time>
      </trkpt>
      <trkpt lat="45.65869" lon="4.56464">
        <ele>727</ele>
        <time>2023-10-30T11:15:50Z</time>
      </trkpt>
      <trkpt lat="45.65858" lon="4.56458">
        <ele>727</ele>
        <time>2023-10-30T11:16:00Z</time>
      </trkpt>
      <trkpt lat="45.65859" lon="4.56441">
        <ele>726</ele>
        <time>2023-10-30T11:16:09Z</time>
      </trkpt>
      <trkpt lat="45.65856" lon="4.56408">
        <ele>726</ele>
        <time>2023-10-30T11:16:28Z</time>
      </trkpt>
      <trkpt lat="45.6584" lon="4.564">
        <ele>725</ele>
        <time>2023-10-30T11:16:41Z</time>
      </trkpt>
      <trkpt lat="45.6584" lon="4.56402">
        <ele>725</ele>
        <time>2023-10-30T11:16:43Z</time>
      </trkpt>
    </trkseg>
  </trk>
</gpx>